< < Back
Terminal Aerodrome Forecast


Current Version              Previous Versions:   1  2  3  4  5  6  7  8  9  

Terminal Aerodrome Forecast

869
FTUS42 KMLB 211100
TAFDAB
TAF
KDAB 211140Z 2112/2212 00000KT P6SM SCT150 BKN250
     FM211500 26003KT P6SM FEW050 BKN250
     FM211900 06007KT P6SM SCT040 BKN250
     FM220000 00000KT P6SM SCT090 BKN250=



Latest METAR

689
SAUS80 KWBC 212100 CCA
MTRDAB
METAR KDAB 212053Z 05008KT 10SM FEW027 SCT035 BKN250 26/21 A2992 RMK AO2
SLP130 T02610206 56007


USA.gov is the U.S. government's official web portal to all federal, state and local government web resources and services.